ENHD

Haugesund Airport

Karmøy, Norway
METAR ENHD 181920Z 12009KT 7000 -DZ FEW017 SCT026 BKN035 03/03 Q1024
Observed Flight Rules
Dec-18 @ 19:20 UTC (46 minutes ago) Marginal Visual Flight Rules
Wind Visibility Clouds Conditions
120° at 9 knots 7,001 meters
  • Few at 1,700' AGL
  • Scattered at 2,600' AGL
  • Broken at 3,500' AGL
  • Light Drizzle
Temperatures Readings
Current 3°C / 37°F
Dewpoint 3°C / 37°F
Humidity 100%
Altimeter 30.24" Hg
Pressure 1024 hPa
Elevation 24
METAR ENHD 181920Z 12009KT 7000 -DZ FEW017 SCT026 BKN035 03/03 Q1024
Observed Flight Rules
Dec-18 @ 19:20 UTC
(46 minutes ago)
MVFR
Wind Visibility
120° at 9 knots 7,001 meters
Clouds
  • Few at 1,700' AGL
  • Scattered at 2,600' AGL
  • Broken at 3,500' AGL
Conditions
  • Light Drizzle
Temperature Dewpoint
3°C / 37°F 3°C / 37°F
Humidity Altimeter Pressure
100% 30.24" Hg 1024 hPa